createdAt,value
2019-02-16T00:02:12.197Z,94.20
2019-02-16T00:07:18.033Z,94.25
2019-02-16T00:12:23.549Z,94.29
2019-02-16T00:17:29.019Z,94.42
2019-02-16T00:22:34.519Z,94.46
2019-02-16T00:27:39.954Z,94.50
2019-02-16T00:32:48.205Z,94.52
2019-02-16T00:37:53.924Z,94.58
2019-02-16T00:42:59.505Z,94.73
2019-02-16T00:48:05.108Z,94.59
2019-02-16T00:53:10.667Z,94.67
2019-02-16T00:58:16.082Z,94.74
2019-02-16T01:03:21.451Z,94.58
2019-02-16T01:08:26.906Z,94.65
2019-02-16T01:13:32.661Z,94.53
2019-02-16T01:18:38.232Z,94.72
2019-02-16T01:23:43.596Z,94.60
2019-02-16T01:28:48.922Z,94.66
2019-02-16T01:33:54.473Z,94.77
2019-02-16T01:38:59.978Z,94.74
2019-02-16T01:44:06.339Z,94.81
2019-02-16T01:49:11.717Z,94.65
2019-02-16T01:54:17.116Z,94.59
2019-02-16T01:59:22.604Z,94.42
2019-02-16T02:04:28.452Z,94.61
2019-02-16T02:09:33.898Z,94.55
2019-02-16T02:14:39.358Z,94.54
2019-02-16T02:19:44.726Z,94.71
2019-02-16T02:24:50.197Z,94.63
2019-02-16T02:29:55.697Z,94.66
2019-02-16T02:35:01.217Z,94.66
2019-02-16T02:45:33.309Z,94.76
2019-02-16T02:50:38.742Z,94.77
2019-02-16T02:55:44.323Z,94.75
2019-02-16T03:00:49.888Z,94.81
2019-02-16T03:05:55.311Z,94.90
2019-02-16T03:11:00.793Z,94.94
2019-02-16T03:16:06.378Z,94.96
2019-02-16T03:21:11.836Z,94.92
2019-02-16T03:26:29.227Z,94.92
2019-02-16T03:31:52.476Z,94.90
2019-02-16T03:37:15.199Z,94.80
2019-02-16T03:42:20.636Z,94.89
2019-02-16T03:47:26.288Z,94.81
2019-02-16T03:52:31.745Z,94.87
2019-02-16T03:57:37.121Z,94.91
2019-02-16T04:02:42.541Z,95.06
2019-02-16T04:07:48.080Z,95.00
2019-02-16T04:12:53.466Z,95.02
2019-02-16T04:17:59.104Z,94.91
2019-02-16T04:23:04.506Z,94.92
2019-02-16T04:28:10.046Z,94.92
2019-02-16T04:33:15.434Z,94.95
2019-02-16T04:38:20.911Z,94.91
2019-02-16T04:43:26.324Z,94.91
2019-02-16T04:48:31.939Z,95.02
2019-02-16T04:53:37.270Z,94.92
2019-02-16T04:58:42.851Z,94.98
2019-02-16T05:03:48.338Z,94.84
2019-02-16T05:08:54.056Z,94.60
2019-02-16T05:13:59.529Z,94.66
2019-02-16T05:19:05.113Z,94.65
2019-02-16T05:24:10.541Z,94.57
2019-02-16T05:29:16.029Z,94.51
2019-02-16T05:34:21.469Z,94.67
2019-02-16T05:39:26.997Z,94.52
2019-02-16T05:44:32.734Z,94.51
2019-02-16T05:49:38.348Z,94.53
2019-02-16T05:54:43.741Z,94.57
2019-02-16T05:59:49.358Z,94.61
2019-02-16T06:04:54.798Z,94.52
2019-02-16T06:10:00.324Z,94.63
2019-02-16T06:15:07.053Z,94.67
2019-02-16T06:20:12.643Z,94.55
2019-02-16T06:25:18.377Z,94.54
2019-02-16T06:30:23.955Z,94.75
2019-02-16T06:35:34.106Z,94.82
2019-02-16T06:40:41.072Z,94.91
2019-02-16T06:45:46.841Z,94.91
2019-02-16T06:50:52.261Z,94.67
2019-02-16T07:01:13.868Z,94.69
2019-02-16T07:06:19.354Z,94.72
2019-02-16T07:11:24.904Z,94.74
2019-02-16T07:16:39.086Z,94.73
2019-02-16T07:21:44.647Z,94.75
2019-02-16T07:26:50.169Z,94.78
2019-02-16T07:31:55.595Z,94.83
2019-02-16T07:37:01.144Z,94.78
2019-02-16T07:42:06.505Z,94.76
2019-02-16T07:47:20.355Z,94.76
2019-02-16T07:52:34.101Z,94.72
2019-02-16T07:57:49.490Z,94.75
2019-02-16T08:02:59.096Z,94.87
2019-02-16T08:08:09.918Z,94.91
2019-02-16T08:13:29.701Z,95.01
2019-02-16T08:18:44.106Z,94.97
2019-02-16T08:23:58.111Z,94.97
2019-02-16T08:29:20.803Z,94.92
2019-02-16T08:34:35.676Z,94.88
2019-02-16T08:39:49.065Z,94.90
2019-02-16T08:45:00.302Z,94.70
2019-02-16T08:50:24.969Z,94.57
2019-02-16T08:55:39.161Z,94.40
2019-02-16T09:00:56.116Z,94.21
2019-02-16T09:06:10.114Z,94.15
2019-02-16T09:11:29.530Z,94.16
2019-02-16T09:16:43.119Z,94.30
2019-02-16T09:21:57.702Z,94.22
2019-02-16T09:27:11.229Z,94.32
2019-02-16T09:32:32.045Z,94.57
2019-02-16T09:37:48.775Z,94.57
2019-02-16T09:43:03.699Z,94.61
2019-02-16T09:48:23.283Z,94.58
2019-02-16T09:53:38.124Z,94.59
2019-02-16T09:58:50.715Z,94.70
2019-02-16T10:04:12.060Z,94.86
2019-02-16T10:09:23.615Z,94.95
2019-02-16T10:14:37.129Z,95.03
2019-02-16T10:19:52.480Z,95.20
2019-02-16T10:25:06.130Z,95.23
2019-02-16T10:30:20.030Z,95.30
2019-02-16T10:35:31.095Z,95.36
2019-02-16T10:40:49.547Z,95.38
2019-02-16T10:46:04.108Z,95.50
2019-02-16T10:51:17.150Z,95.60
2019-02-16T10:56:32.187Z,95.57
2019-02-16T11:01:48.148Z,95.57
2019-02-16T11:06:59.170Z,95.43
2019-02-16T11:12:13.108Z,95.45
2019-02-16T11:17:29.010Z,95.41
2019-02-16T11:22:43.782Z,95.22
2019-02-16T11:27:57.668Z,95.29
2019-02-16T11:33:09.593Z,95.31
2019-02-16T11:38:27.107Z,95.27
2019-02-16T11:43:38.452Z,95.29
2019-02-16T11:48:49.902Z,95.32
2019-02-16T11:54:10.048Z,95.27
2019-02-16T11:59:24.503Z,95.26
2019-02-16T12:04:44.099Z,95.41
2019-02-16T12:09:59.379Z,95.37
2019-02-16T12:15:14.120Z,95.50
2019-02-16T12:20:33.593Z,95.46
2019-02-16T12:25:45.361Z,95.48
2019-02-16T12:30:59.160Z,95.55
2019-02-16T12:36:13.119Z,95.68
2019-02-16T12:41:26.545Z,95.64
2019-02-16T12:46:40.142Z,95.74
2019-02-16T12:52:04.501Z,95.89
2019-02-16T12:57:16.002Z,95.90
2019-02-16T13:02:31.062Z,95.84
2019-02-16T13:07:46.249Z,95.84
2019-02-16T13:13:03.064Z,95.93
2019-02-16T13:18:17.059Z,96.04
2019-02-16T13:23:30.505Z,95.97
2019-02-16T13:28:45.785Z,96.00
2019-02-16T13:33:56.638Z,96.13
2019-02-16T13:39:12.741Z,96.09
2019-02-16T13:44:27.058Z,96.15
2019-02-16T13:49:38.438Z,96.11
2019-02-16T13:54:52.210Z,96.19
2019-02-16T14:00:05.982Z,96.23
2019-02-16T14:05:22.277Z,96.18
2019-02-16T14:10:35.441Z,96.15
2019-02-16T14:15:49.001Z,96.17
2019-02-16T14:20:54.661Z,96.24
2019-02-16T14:26:00.371Z,96.16
2019-02-16T14:31:08.983Z,96.06
2019-02-16T14:36:14.560Z,96.05
2019-02-16T14:41:20.298Z,96.04
2019-02-16T14:46:28.660Z,96.00
2019-02-16T14:51:34.359Z,96.00
2019-02-16T14:56:39.818Z,95.92
2019-02-16T15:01:45.520Z,95.95
2019-02-16T15:06:51.261Z,95.91
2019-02-16T15:11:56.761Z,95.91
2019-02-16T15:17:02.219Z,95.75
2019-02-16T15:22:07.821Z,95.49
2019-02-16T15:27:13.359Z,95.26
2019-02-16T15:32:18.924Z,95.15
2019-02-16T15:37:26.803Z,95.19
2019-02-16T15:42:32.278Z,95.13
2019-02-16T15:47:37.718Z,94.96
2019-02-16T15:52:45.512Z,94.89
2019-02-16T15:57:51.358Z,94.82
2019-02-16T16:02:57.063Z,94.84
2019-02-16T16:08:11.098Z,94.88
2019-02-16T16:13:25.141Z,94.67
2019-02-16T16:18:39.120Z,94.64
2019-02-16T16:23:53.400Z,94.59
2019-02-16T16:29:10.858Z,94.44
2019-02-16T16:34:24.140Z,94.00
2019-02-16T16:39:39.137Z,94.00
2019-02-16T16:44:53.082Z,94.18
2019-02-16T16:50:18.172Z,94.21
2019-02-16T16:55:30.926Z,94.28
2019-02-16T17:00:47.810Z,94.34
2019-02-16T17:06:02.138Z,94.34
2019-02-16T17:11:19.058Z,94.35
2019-02-16T17:16:33.281Z,94.23
2019-02-16T17:21:47.077Z,94.29
2019-02-16T17:27:00.043Z,94.32
2019-02-16T17:32:14.720Z,94.42
2019-02-16T17:37:29.040Z,94.33
2019-02-16T17:42:49.860Z,94.30
2019-02-16T17:48:04.138Z,94.23
2019-02-16T17:53:19.381Z,94.31
2019-02-16T17:58:29.941Z,94.27
2019-02-16T18:03:54.319Z,94.32
2019-02-16T18:09:17.938Z,94.38
2019-02-16T18:14:32.041Z,94.44
2019-02-16T18:19:42.858Z,94.49
2019-02-16T18:25:07.361Z,94.44
2019-02-16T18:30:22.163Z,94.51
2019-02-16T18:35:36.621Z,94.43
2019-02-16T18:40:50.183Z,94.48
2019-02-16T18:46:04.217Z,94.53
2019-02-16T18:51:28.822Z,94.55
2019-02-16T18:56:53.344Z,94.60
2019-02-16T19:02:10.806Z,94.60
2019-02-16T19:07:25.143Z,94.69
2019-02-16T19:12:44.735Z,94.84
2019-02-16T19:17:58.360Z,94.98
2019-02-16T19:23:13.777Z,94.82
2019-02-16T19:28:27.587Z,94.89
2019-02-16T19:33:43.834Z,95.05
2019-02-16T19:39:01.896Z,95.17
2019-02-16T19:44:17.917Z,95.15
2019-02-16T19:49:32.137Z,95.26
2019-02-16T19:54:52.518Z,95.41
2019-02-16T20:00:06.101Z,95.50
2019-02-16T20:05:31.448Z,95.58
2019-02-16T20:10:56.057Z,95.54
2019-02-16T20:16:10.097Z,95.59
2019-02-16T20:21:32.346Z,95.66
2019-02-16T20:26:46.056Z,95.53
2019-02-16T20:32:06.193Z,95.60
2019-02-16T20:37:20.206Z,95.61
2019-02-16T20:42:33.534Z,95.54
2019-02-16T20:47:57.844Z,95.54
2019-02-16T20:53:13.077Z,95.61
2019-02-16T20:58:27.001Z,95.60
2019-02-16T21:03:41.009Z,95.60
2019-02-16T21:08:55.686Z,95.40
2019-02-16T21:14:19.986Z,95.42
2019-02-16T21:19:39.599Z,95.37
2019-02-16T21:24:51.180Z,95.44
2019-02-16T21:30:06.117Z,95.45
2019-02-16T21:35:20.101Z,95.47
2019-02-16T21:40:34.044Z,95.42
2019-02-16T21:45:52.129Z,95.57
2019-02-16T21:51:06.020Z,95.61
2019-02-16T21:56:20.062Z,95.54
2019-02-16T22:01:34.122Z,95.51
2019-02-16T22:06:53.452Z,95.51
2019-02-16T22:12:07.089Z,95.47
2019-02-16T22:17:12.523Z,95.25
2019-02-16T22:22:18.019Z,95.17
2019-02-16T22:27:23.865Z,95.15
2019-02-16T22:32:29.535Z,95.22
2019-02-16T22:37:35.017Z,95.08
2019-02-16T22:42:40.544Z,95.13
2019-02-16T22:47:46.034Z,95.15
2019-02-16T22:52:51.566Z,95.10
2019-02-16T22:57:57.076Z,95.12
2019-02-16T23:03:02.656Z,95.21
2019-02-16T23:08:08.261Z,95.11
2019-02-16T23:13:13.684Z,95.07
2019-02-16T23:18:19.437Z,95.04
2019-02-16T23:23:24.883Z,94.95
2019-02-16T23:28:38.635Z,94.92
2019-02-16T23:33:37.646Z,94.88
2019-02-16T23:38:43.039Z,94.77
2019-02-16T23:43:48.507Z,94.67
2019-02-16T23:48:53.987Z,94.67
2019-02-16T23:53:59.516Z,94.54
2019-02-16T23:59:05.152Z,94.59
